Albany, Ohio
Current Conditions -  °F | °C
As of 12:35 AM on Saturday 20 Dec 2014 (Local Time) from KUNI Reporting Station
Overcast Overcast  
Wind Chill: -4°   Ceiling: 1900
Heat Index: -1°   Visibility: 10mi
Dew Point: -5°   Wind: 5mph
Humidity: 75%   Direction: 80°E
Pressure: 30.26"   Gusts: NA
Location:  39.23°N, 82.2°W
Report Text: KUNI 200535Z AUTO 08004KT 10SM OVC019 M01/M05 A3026 RMK AO2 T10121051
Loading
Personal Weather Stations






























Interactive Weather Map New forecast layout! Learn more

10-Day Weather Forecast

Advertisements
Track Severe Weather on mobile